createdAt,value
2019-02-20T00:00:17.217Z,80.35
2019-02-20T00:02:46.699Z,80.69
2019-02-20T00:05:13.863Z,79.98
2019-02-20T00:07:41.236Z,80.42
2019-02-20T00:10:09.068Z,80.65
2019-02-20T00:12:38.266Z,81.25
2019-02-20T00:15:05.572Z,80.60
2019-02-20T00:17:34.647Z,80.13
2019-02-20T00:20:01.795Z,79.92
2019-02-20T00:22:39.815Z,79.61
2019-02-20T00:25:01.371Z,79.48
2019-02-20T00:27:28.749Z,79.64
2019-02-20T00:29:55.919Z,79.80
2019-02-20T00:32:23.258Z,80.10
2019-02-20T00:34:51.755Z,80.70
2019-02-20T00:37:19.515Z,80.53
2019-02-20T00:39:46.687Z,80.00
2019-02-20T00:42:14.103Z,79.66
2019-02-20T00:44:49.261Z,79.75
2019-02-20T00:47:34.907Z,80.36
2019-02-20T00:50:02.225Z,80.58
2019-02-20T00:52:38.177Z,80.10
2019-02-20T00:55:06.428Z,80.59
2019-02-20T00:57:33.515Z,80.63
2019-02-20T01:00:00.587Z,80.11
2019-02-20T01:02:27.653Z,80.94
2019-02-20T01:04:57.393Z,80.38
2019-02-20T01:07:26.305Z,80.64
2019-02-20T01:09:54.016Z,81.46
2019-02-20T01:12:21.473Z,81.57
2019-02-20T01:14:49.340Z,82.64
2019-02-20T01:17:16.520Z,82.92
2019-02-20T01:19:43.942Z,83.36
2019-02-20T01:22:11.298Z,83.86
2019-02-20T01:24:38.454Z,83.27
2019-02-20T01:27:05.574Z,82.94
2019-02-20T01:29:32.998Z,83.81
2019-02-20T01:32:02.183Z,83.53
2019-02-20T01:34:29.707Z,82.83
2019-02-20T01:36:57.204Z,83.12
2019-02-20T01:39:24.269Z,83.12
2019-02-20T01:41:51.782Z,82.10
2019-02-20T01:44:20.869Z,82.22
2019-02-20T01:46:48.059Z,82.27
2019-02-20T01:49:15.121Z,83.23
2019-02-20T01:51:42.223Z,82.98
2019-02-20T01:54:11.079Z,83.50
2019-02-20T01:56:38.765Z,84.03
2019-02-20T01:59:07.243Z,83.41
2019-02-20T02:01:34.645Z,83.29
2019-02-20T02:04:02.363Z,83.41
2019-02-20T02:06:29.943Z,83.20
2019-02-20T04:01:58.583Z,83.46
2019-02-20T04:04:26.467Z,83.93
2019-02-20T04:06:54.181Z,83.92
2019-02-20T04:09:23.674Z,84.08
2019-02-20T04:11:51.863Z,83.77
2019-02-20T04:14:19.545Z,84.15
2019-02-20T04:16:47.281Z,84.32
2019-02-20T04:19:14.804Z,83.40
2019-02-20T04:21:44.594Z,84.46
2019-02-20T04:24:12.678Z,84.01
2019-02-20T04:26:41.206Z,83.41
2019-02-20T04:29:08.666Z,83.98
2019-02-20T04:31:36.429Z,83.68
2019-02-20T04:34:04.048Z,83.61
2019-02-20T04:36:31.857Z,83.95
2019-02-20T04:39:00.043Z,83.46
2019-02-20T04:41:27.470Z,83.57
2019-02-20T04:43:54.543Z,83.01
2019-02-20T04:46:22.022Z,83.65
2019-02-20T04:48:49.714Z,82.94
2019-02-20T04:51:17.415Z,84.17
2019-02-20T04:53:45.127Z,84.53
2019-02-20T04:56:12.264Z,84.00
2019-02-20T04:58:40.447Z,83.60
2019-02-20T05:01:09.057Z,84.29
2019-02-20T05:03:36.164Z,84.09
2019-02-20T05:06:03.353Z,84.01
2019-02-20T05:08:30.473Z,83.82
2019-02-20T05:10:57.768Z,83.86
2019-02-20T05:13:25.232Z,83.79
2019-02-20T05:15:52.320Z,83.31
2019-02-20T05:18:19.421Z,83.21
2019-02-20T05:20:47.618Z,82.76
2019-02-20T05:23:15.589Z,82.78
2019-02-20T05:25:43.027Z,83.45
2019-02-20T05:28:10.459Z,83.01
2019-02-20T05:30:37.533Z,83.15
2019-02-20T05:33:05.044Z,83.59
2019-02-20T05:35:32.766Z,83.47
2019-02-20T05:38:00.427Z,82.86
2019-02-20T05:40:28.264Z,82.60
2019-02-20T05:42:55.482Z,82.20
2019-02-20T05:45:22.520Z,82.23
2019-02-20T05:47:50.516Z,82.40
2019-02-20T05:50:17.580Z,83.08
2019-02-20T05:52:44.715Z,82.81
2019-02-20T05:55:11.851Z,82.78
2019-02-20T05:57:39.304Z,82.65
2019-02-20T06:00:07.635Z,83.70
2019-02-20T06:02:34.740Z,83.25
2019-02-20T06:05:03.415Z,83.22
2019-02-20T06:07:32.574Z,83.00
2019-02-20T06:09:59.745Z,82.25
2019-02-20T06:12:28.618Z,82.60
2019-02-20T06:14:55.977Z,82.79
2019-02-20T06:17:23.031Z,83.23
2019-02-20T06:19:50.517Z,83.42
2019-02-20T06:22:18.044Z,83.19
2019-02-20T06:24:45.794Z,83.09
2019-02-20T06:27:13.209Z,82.98
2019-02-20T06:29:41.323Z,82.81
2019-02-20T06:32:08.990Z,84.16
2019-02-20T06:34:37.565Z,83.51
2019-02-20T06:37:05.435Z,83.32
2019-02-20T06:39:33.811Z,82.91
2019-02-20T06:42:01.910Z,83.28
2019-02-20T06:44:28.977Z,83.01
2019-02-20T06:46:56.797Z,83.41
2019-02-20T06:49:24.565Z,83.14
2019-02-20T06:51:53.042Z,83.39
2019-02-20T06:54:20.517Z,84.46
2019-02-20T06:56:47.992Z,83.22
2019-02-20T06:59:15.340Z,82.91
2019-02-20T07:01:42.970Z,82.94
2019-02-20T07:04:10.324Z,82.89
2019-02-20T07:06:49.760Z,82.98
2019-02-20T07:09:50.698Z,83.61
2019-02-20T07:12:26.963Z,82.95
2019-02-20T07:15:34.255Z,82.45
2019-02-20T07:18:39.296Z,82.86
2019-02-20T07:21:37.168Z,82.48
2019-02-20T07:24:28.686Z,82.05
2019-02-20T07:27:02.466Z,81.95
2019-02-20T07:30:02.307Z,81.26
2019-02-20T07:32:32.469Z,82.17
2019-02-20T07:35:00.402Z,81.30
2019-02-20T07:37:27.747Z,81.24
2019-02-20T07:39:54.783Z,81.09
2019-02-20T07:42:21.814Z,81.53
2019-02-20T07:44:48.906Z,81.46
2019-02-20T07:47:17.683Z,81.97
2019-02-20T07:49:45.861Z,81.06
2019-02-20T07:52:13.827Z,80.35
2019-02-20T07:54:40.904Z,80.22
2019-02-20T07:57:08.327Z,79.20
2019-02-20T07:59:35.711Z,79.64
2019-02-20T08:02:02.775Z,80.21
2019-02-20T08:04:29.874Z,79.59
2019-02-20T08:06:56.938Z,79.81
2019-02-20T08:09:24.635Z,78.30
2019-02-20T08:11:52.492Z,78.81
2019-02-20T08:14:19.558Z,79.25
2019-02-20T08:16:52.262Z,78.86
2019-02-20T08:19:16.262Z,78.65
2019-02-20T08:21:43.923Z,78.60
2019-02-20T08:24:11.373Z,78.67
2019-02-20T08:26:38.435Z,78.48
2019-02-20T08:29:05.794Z,77.95
2019-02-20T08:31:33.235Z,78.38
2019-02-20T08:34:01.562Z,78.53
2019-02-20T08:36:28.655Z,78.61
2019-02-20T08:38:56.018Z,78.13
2019-02-20T08:41:23.829Z,78.08
2019-02-20T08:43:51.987Z,77.59
2019-02-20T08:46:20.074Z,77.17
2019-02-20T08:48:47.799Z,76.50
2019-02-20T08:51:14.874Z,76.32
2019-02-20T08:53:42.241Z,76.85
2019-02-20T08:56:09.334Z,77.17
2019-02-20T08:58:36.394Z,76.62
2019-02-20T09:01:05.435Z,76.82
2019-02-20T09:03:33.719Z,76.66
2019-02-20T09:06:02.281Z,75.56
2019-02-20T09:08:29.687Z,76.10
2019-02-20T09:10:56.793Z,76.35
2019-02-20T09:13:26.106Z,75.73
2019-02-20T09:15:53.225Z,76.62
2019-02-20T09:18:20.286Z,75.36
2019-02-20T09:20:47.476Z,76.03
2019-02-20T09:23:15.978Z,76.24
2019-02-20T09:25:44.853Z,76.13
2019-02-20T09:28:13.000Z,76.28
2019-02-20T09:30:40.244Z,74.78
2019-02-20T09:33:08.053Z,74.65
2019-02-20T09:35:35.124Z,74.52
2019-02-20T09:38:02.195Z,74.58
2019-02-20T09:40:29.909Z,73.54
2019-02-20T09:42:58.006Z,73.49
2019-02-20T09:45:26.152Z,73.11
2019-02-20T09:47:54.360Z,74.00
2019-02-20T09:50:22.830Z,73.20
2019-02-20T09:52:52.423Z,73.24
2019-02-20T09:55:18.832Z,73.31
2019-02-20T09:57:45.963Z,74.06
2019-02-20T10:00:14.582Z,73.45
2019-02-20T10:02:42.871Z,73.11
2019-02-20T10:05:10.096Z,73.58
2019-02-20T10:07:37.554Z,73.83
2019-02-20T10:10:05.319Z,74.08
2019-02-20T10:12:32.775Z,74.52
2019-02-20T10:14:59.847Z,73.25
2019-02-20T10:17:28.040Z,72.26
2019-02-20T10:19:55.323Z,72.66
2019-02-20T10:22:22.765Z,73.61
2019-02-20T10:24:50.389Z,73.20
2019-02-20T10:27:19.289Z,73.37
2019-02-20T10:29:46.350Z,74.70
2019-02-20T10:32:13.697Z,73.91
2019-02-20T10:34:42.903Z,73.78
2019-02-20T10:37:09.966Z,74.37
2019-02-20T10:39:37.022Z,74.95
2019-02-20T10:42:04.736Z,75.50
2019-02-20T10:44:32.092Z,75.43
2019-02-20T10:46:59.865Z,74.28
2019-02-20T10:49:28.746Z,74.01
2019-02-20T10:51:55.820Z,74.01
2019-02-20T10:54:23.197Z,74.77
2019-02-20T10:56:50.807Z,74.92
2019-02-20T10:59:21.036Z,75.42
2019-02-20T11:01:48.658Z,75.10
2019-02-20T11:04:15.786Z,75.54
2019-02-20T11:06:42.945Z,74.57
2019-02-20T11:09:10.854Z,75.39
2019-02-20T11:11:38.946Z,75.45
2019-02-20T11:14:07.450Z,75.88
2019-02-20T11:16:35.922Z,75.71
2019-02-20T11:19:05.196Z,75.85
2019-02-20T11:21:34.143Z,75.13
2019-02-20T11:24:01.641Z,75.33
2019-02-20T11:26:28.749Z,74.19
2019-02-20T11:28:56.751Z,74.94
2019-02-20T11:31:24.243Z,75.63
2019-02-20T11:33:51.424Z,75.07
2019-02-20T11:36:20.096Z,75.31
2019-02-20T11:38:49.421Z,74.04
2019-02-20T11:41:17.322Z,75.09
2019-02-20T11:43:45.304Z,75.21
2019-02-20T11:46:12.490Z,75.21
2019-02-20T11:48:39.692Z,75.00
2019-02-20T11:51:06.816Z,75.30
2019-02-20T11:53:37.409Z,76.25
2019-02-20T11:56:05.838Z,77.36
2019-02-20T11:58:33.510Z,76.56
2019-02-20T12:01:02.700Z,75.46
2019-02-20T12:03:31.215Z,75.78
2019-02-20T12:05:58.297Z,75.75
2019-02-20T12:08:25.402Z,75.19
2019-02-20T12:10:52.871Z,75.20
2019-02-20T12:13:21.321Z,75.11
2019-02-20T12:15:50.031Z,74.74
2019-02-20T12:18:17.716Z,75.24
2019-02-20T12:20:46.287Z,76.35
2019-02-20T12:23:14.476Z,77.13
2019-02-20T12:25:41.987Z,77.61
2019-02-20T12:28:09.357Z,77.74
2019-02-20T12:30:38.110Z,77.08
2019-02-20T12:33:05.468Z,76.27
2019-02-20T12:35:33.591Z,77.03
2019-02-20T12:38:02.481Z,77.95
2019-02-20T12:40:30.332Z,78.40
2019-02-20T12:42:58.508Z,78.32
2019-02-20T12:45:25.791Z,78.07
2019-02-20T12:47:52.872Z,78.14
2019-02-20T12:50:20.357Z,78.62
2019-02-20T12:52:47.858Z,78.43
2019-02-20T12:55:16.284Z,78.55
2019-02-20T12:57:43.814Z,78.51
2019-02-20T13:00:11.474Z,78.66
2019-02-20T13:02:40.446Z,78.74
2019-02-20T13:05:11.098Z,78.03
2019-02-20T13:07:38.683Z,78.80
2019-02-20T13:10:06.584Z,79.93
2019-02-20T13:12:33.968Z,79.66
2019-02-20T13:15:01.518Z,80.52
2019-02-20T13:17:30.545Z,81.87
2019-02-20T13:19:57.912Z,81.30
2019-02-20T13:22:25.312Z,80.47
2019-02-20T13:24:52.723Z,80.71
2019-02-20T13:27:22.717Z,80.26
2019-02-20T13:29:49.035Z,80.32
2019-02-20T13:32:16.227Z,79.25
2019-02-20T13:34:45.850Z,79.04
2019-02-20T13:37:13.503Z,79.35
2019-02-20T13:39:41.676Z,78.92
2019-02-20T13:42:08.793Z,79.02
2019-02-20T13:44:36.291Z,79.29
2019-02-20T13:47:04.960Z,78.74
2019-02-20T13:49:33.031Z,79.45
2019-02-20T13:52:00.414Z,78.37
2019-02-20T13:54:28.172Z,78.12
2019-02-20T13:57:01.928Z,77.70
2019-02-20T13:59:26.334Z,76.68
2019-02-20T14:01:53.742Z,76.17
2019-02-20T14:04:20.842Z,76.57
2019-02-20T14:06:47.934Z,75.87
2019-02-20T14:09:15.340Z,75.65
2019-02-20T14:11:47.616Z,75.76
2019-02-20T14:14:16.742Z,75.43
2019-02-20T14:16:45.711Z,74.83
2019-02-20T14:19:13.511Z,75.69
2019-02-20T14:21:40.582Z,75.69
2019-02-20T14:24:07.701Z,75.13
2019-02-20T14:26:35.534Z,74.93
2019-02-20T14:29:04.326Z,74.93
2019-02-20T14:31:32.103Z,74.23
2019-02-20T14:33:59.751Z,73.64
2019-02-20T14:36:27.812Z,74.28
2019-02-20T14:38:55.276Z,73.36
2019-02-20T14:41:24.171Z,73.02
2019-02-20T14:43:52.339Z,73.36
2019-02-20T14:46:19.967Z,72.86
2019-02-20T14:48:47.405Z,71.67
2019-02-20T14:51:15.937Z,72.34
2019-02-20T14:53:43.703Z,72.10
2019-02-20T14:56:12.797Z,70.32
2019-02-20T14:58:42.104Z,70.32
2019-02-20T15:01:09.500Z,70.44
2019-02-20T15:03:37.350Z,71.68
2019-02-20T15:06:05.502Z,72.13
2019-02-20T15:08:32.982Z,71.89
2019-02-20T15:11:04.039Z,71.89
2019-02-20T15:13:33.271Z,71.79
2019-02-20T15:16:01.657Z,73.12
2019-02-20T15:18:30.925Z,73.12
2019-02-20T15:20:57.999Z,73.10
2019-02-20T15:23:25.056Z,73.10
2019-02-20T15:25:52.204Z,73.72
2019-02-20T15:28:19.570Z,73.23
2019-02-20T15:30:46.977Z,73.32
2019-02-20T15:33:14.209Z,73.51
2019-02-20T15:35:41.491Z,73.51
2019-02-20T15:38:08.570Z,73.94
2019-02-20T15:40:35.674Z,73.69
2019-02-20T15:43:02.768Z,74.35
2019-02-20T15:45:30.231Z,74.35
2019-02-20T15:47:58.292Z,74.08
2019-02-20T15:50:25.721Z,74.17
2019-02-20T15:52:52.788Z,73.96
2019-02-20T15:55:19.892Z,73.77
2019-02-20T15:57:48.014Z,73.17
2019-02-20T16:00:18.721Z,72.96
2019-02-20T16:02:45.796Z,72.84
2019-02-20T16:05:15.074Z,72.62
2019-02-20T16:07:42.143Z,72.62
2019-02-20T16:10:09.679Z,72.55
2019-02-20T16:12:37.139Z,72.55
2019-02-20T16:15:05.437Z,72.99
2019-02-20T16:17:33.098Z,73.14
2019-02-20T16:20:00.455Z,73.14
2019-02-20T16:22:28.147Z,73.16
2019-02-20T16:24:55.530Z,73.44
2019-02-20T16:27:22.627Z,73.10
2019-02-20T16:29:50.279Z,73.83
2019-02-20T16:32:19.203Z,73.83
2019-02-20T16:34:47.376Z,74.07
2019-02-20T16:37:14.903Z,74.93
2019-02-20T16:39:42.075Z,74.29
2019-02-20T16:42:10.417Z,74.18
2019-02-20T16:44:38.826Z,74.18
2019-02-20T16:47:06.277Z,76.08
2019-02-20T16:49:34.039Z,76.08
2019-02-20T16:52:01.485Z,76.62
2019-02-20T16:54:28.716Z,76.62
2019-02-20T16:56:56.128Z,76.33
2019-02-20T16:59:24.783Z,76.33
2019-02-20T17:01:53.122Z,77.29
2019-02-20T17:04:20.612Z,77.41
2019-02-20T17:06:48.172Z,77.41
2019-02-20T17:09:15.527Z,78.13
2019-02-20T17:11:42.599Z,78.13
2019-02-20T17:14:10.120Z,78.26
2019-02-20T17:16:38.092Z,78.77
2019-02-20T17:19:07.767Z,79.02
2019-02-20T17:21:35.151Z,79.76
2019-02-20T17:24:04.583Z,79.52
2019-02-20T17:26:32.130Z,79.61
2019-02-20T17:29:01.367Z,79.61
2019-02-20T17:31:28.987Z,80.10
2019-02-20T17:33:56.655Z,80.20
2019-02-20T17:36:23.872Z,80.06
2019-02-20T17:38:51.270Z,82.20
2019-02-20T17:41:18.429Z,81.10
2019-02-20T17:43:46.231Z,80.75
2019-02-20T17:46:13.621Z,81.22
2019-02-20T17:48:40.694Z,83.11
2019-02-20T17:51:08.234Z,82.99
2019-02-20T17:53:38.043Z,83.99
2019-02-20T17:56:05.126Z,84.07
2019-02-20T17:58:32.598Z,84.36
2019-02-20T18:01:01.695Z,84.05
2019-02-20T18:03:29.927Z,84.21
2019-02-20T18:05:57.278Z,84.30
2019-02-20T18:08:24.382Z,83.83
2019-02-20T18:10:51.779Z,83.69
2019-02-20T18:13:19.803Z,83.30
2019-02-20T18:15:48.450Z,82.82
2019-02-20T18:18:15.874Z,82.74
2019-02-20T18:20:43.465Z,82.51
2019-02-20T18:23:10.780Z,82.18
2019-02-20T18:25:38.161Z,82.38
2019-02-20T18:28:06.462Z,82.66
2019-02-20T18:30:33.798Z,83.74
2019-02-20T18:33:01.434Z,83.93
2019-02-20T18:35:28.862Z,84.28
2019-02-20T18:37:55.957Z,84.34
2019-02-20T18:40:23.094Z,83.78
2019-02-20T18:42:52.344Z,83.97
2019-02-20T18:45:19.453Z,83.07
2019-02-20T18:47:46.555Z,82.87
2019-02-20T18:50:13.816Z,82.60
2019-02-20T18:52:42.271Z,82.02
2019-02-20T18:55:11.242Z,81.17
2019-02-20T18:57:38.891Z,81.43
2019-02-20T19:00:10.037Z,82.00
2019-02-20T19:02:38.569Z,81.19
2019-02-20T19:05:06.373Z,81.40
2019-02-20T19:07:34.753Z,80.67
2019-02-20T19:10:02.093Z,80.40
2019-02-20T19:13:04.401Z,80.33
2019-02-20T19:15:44.187Z,80.18
2019-02-20T19:19:02.339Z,79.57
2019-02-20T19:22:12.813Z,79.24
2019-02-20T19:25:20.388Z,79.68
2019-02-20T19:28:43.985Z,78.61
2019-02-20T19:31:38.187Z,78.18
2019-02-20T19:34:46.659Z,77.52
2019-02-20T19:38:07.600Z,77.06
2019-02-20T19:41:03.004Z,76.80
2019-02-20T19:43:45.046Z,75.98
2019-02-20T19:46:45.059Z,76.02
2019-02-20T19:49:39.227Z,75.57
2019-02-20T19:52:37.862Z,75.83
2019-02-20T19:55:10.845Z,75.07
2019-02-20T19:58:02.574Z,74.87
2019-02-20T20:01:17.958Z,74.52
2019-02-20T20:04:26.219Z,74.55
2019-02-20T20:07:12.751Z,74.11
2019-02-20T20:09:59.436Z,73.56
2019-02-20T20:13:01.934Z,74.24
2019-02-20T20:15:41.947Z,73.50
2019-02-20T20:18:32.388Z,72.89
2019-02-20T20:21:52.920Z,72.89
2019-02-20T20:25:14.719Z,73.14
2019-02-20T20:28:04.088Z,73.18
2019-02-20T20:31:06.741Z,72.93
2019-02-20T20:34:22.981Z,72.45
2019-02-20T20:37:22.055Z,72.55
2019-02-20T20:40:32.020Z,72.58
2019-02-20T20:43:51.828Z,72.35
2019-02-20T20:46:46.636Z,72.49
2019-02-20T20:50:05.345Z,73.01
2019-02-20T20:52:58.214Z,72.62
2019-02-20T20:55:49.446Z,73.14
2019-02-20T20:58:52.336Z,72.90
2019-02-20T21:02:17.099Z,72.83
2019-02-20T21:05:30.585Z,72.91
2019-02-20T21:08:04.546Z,72.89
2019-02-20T21:11:24.530Z,72.97
2019-02-20T21:14:33.562Z,73.09
2019-02-20T21:17:40.388Z,73.07
2019-02-20T21:20:45.824Z,73.32
2019-02-20T21:23:54.589Z,73.64
2019-02-20T21:26:53.092Z,73.60
2019-02-20T21:29:51.886Z,73.64
2019-02-20T21:33:19.002Z,73.12
2019-02-20T21:36:04.745Z,72.96
2019-02-20T21:39:25.207Z,72.90
2019-02-20T21:42:18.314Z,73.11
2019-02-20T21:45:15.975Z,72.36
2019-02-20T21:48:21.089Z,72.43
2019-02-20T21:51:29.511Z,72.30
2019-02-20T21:54:47.551Z,72.04
2019-02-20T21:58:21.009Z,72.96
2019-02-20T22:01:31.825Z,72.52
2019-02-20T22:04:41.784Z,72.26
2019-02-20T22:07:52.527Z,71.17
2019-02-20T22:10:52.976Z,71.45
2019-02-20T22:14:14.069Z,71.77
2019-02-20T22:17:26.095Z,72.27
2019-02-20T22:20:53.755Z,72.31
2019-02-20T22:24:01.712Z,72.07
2019-02-20T22:26:50.839Z,71.95
2019-02-20T22:30:04.843Z,72.25
2019-02-20T22:33:01.447Z,71.80
2019-02-20T22:36:02.667Z,71.10
2019-02-20T22:39:04.007Z,70.98
2019-02-20T22:42:04.150Z,70.77
2019-02-20T22:44:55.072Z,71.30
2019-02-20T22:48:04.747Z,70.67
2019-02-20T22:51:07.401Z,70.82
2019-02-20T22:54:06.618Z,70.79
2019-02-20T22:57:20.354Z,71.37
2019-02-20T23:00:43.858Z,71.56
2019-02-20T23:03:21.011Z,71.53
2019-02-20T23:06:26.227Z,71.19
2019-02-20T23:09:11.891Z,71.87
2019-02-20T23:12:04.299Z,72.13
2019-02-20T23:14:52.020Z,71.77
2019-02-20T23:17:20.214Z,72.32
2019-02-20T23:19:47.399Z,71.84
2019-02-20T23:22:14.532Z,71.31
2019-02-20T23:24:42.632Z,70.94
2019-02-20T23:27:11.008Z,71.38
2019-02-20T23:29:38.090Z,71.64
2019-02-20T23:32:05.958Z,71.94
2019-02-20T23:34:33.372Z,71.74
2019-02-20T23:37:00.730Z,71.75
2019-02-20T23:39:29.784Z,71.52
2019-02-20T23:41:57.244Z,71.11
2019-02-20T23:44:25.023Z,71.27
2019-02-20T23:46:52.815Z,71.21
2019-02-20T23:49:20.882Z,70.68
2019-02-20T23:51:48.238Z,70.60
2019-02-20T23:54:15.695Z,70.89
2019-02-20T23:56:43.892Z,71.28
2019-02-20T23:59:10.977Z,70.70
